createdAt,value
2022-11-18T00:03:37.878Z,95223.03
2022-11-18T00:07:40.913Z,95215.34
2022-11-18T00:11:53.644Z,95213.56
2022-11-18T00:16:03.046Z,95197.13
2022-11-18T00:20:03.110Z,95199.72
2022-11-18T00:24:06.069Z,95200.53
2022-11-18T00:28:06.644Z,95177.13
2022-11-18T00:32:07.059Z,95190.09
2022-11-18T00:36:09.893Z,95203.09
2022-11-18T00:40:14.761Z,95201.72
2022-11-18T00:44:15.102Z,95201.34
2022-11-18T00:48:21.574Z,95193.25
2022-11-18T00:52:21.697Z,95186.31
2022-11-18T00:56:24.420Z,95192.84
2022-11-18T01:00:24.737Z,95196.09
2022-11-18T01:04:25.125Z,95192.84
2022-11-18T01:08:26.090Z,95204.28
2022-11-18T01:12:41.292Z,95207.56
2022-11-18T01:16:41.368Z,95206.66
2022-11-18T01:20:41.861Z,95185.34
2022-11-18T01:24:41.946Z,95203.59
2022-11-18T01:28:45.321Z,95201.88
2022-11-18T01:32:45.393Z,95197.34
2022-11-18T01:36:45.658Z,95189.31
2022-11-18T01:40:45.818Z,95193.34
2022-11-18T01:45:22.879Z,95195.03
2022-11-18T01:49:23.423Z,95196.19
2022-11-18T01:53:28.521Z,95185.94
2022-11-18T01:57:32.542Z,95197.53
2022-11-18T02:01:35.674Z,95189.59
2022-11-18T02:05:37.932Z,95190.28
2022-11-18T02:09:39.852Z,95180.50
2022-11-18T02:13:39.992Z,95191.34
2022-11-18T02:17:57.912Z,95193.03
2022-11-18T02:22:15.320Z,95195.63
2022-11-18T02:27:17.589Z,95215.41
2022-11-18T02:31:30.144Z,95209.59
2022-11-18T02:35:36.275Z,95213.44
2022-11-18T02:39:44.936Z,95204.38
2022-11-18T02:43:51.377Z,95163.53
2022-11-18T02:47:57.680Z,95196.72
2022-11-18T02:52:00.265Z,95195.00
2022-11-18T02:56:02.143Z,95185.94
2022-11-18T03:00:02.583Z,95193.41
2022-11-18T03:04:07.032Z,95187.78
2022-11-18T03:08:16.986Z,95196.09
2022-11-18T03:12:32.747Z,95191.81
2022-11-18T03:16:39.648Z,95188.28
2022-11-18T03:20:52.376Z,95190.81
2022-11-18T03:25:04.687Z,95199.53
2022-11-18T03:29:13.237Z,95169.50
2022-11-18T03:33:20.289Z,95197.34
2022-11-18T03:37:29.162Z,95195.53
2022-11-18T03:41:33.044Z,95193.38
2022-11-18T03:45:39.528Z,95186.69
2022-11-18T03:49:48.169Z,95212.91
2022-11-18T03:54:09.494Z,95215.69
2022-11-18T03:58:20.195Z,95213.50
2022-11-18T04:02:23.847Z,95212.00
2022-11-18T04:06:44.856Z,95220.03
2022-11-18T04:10:55.110Z,95224.84
2022-11-18T04:14:57.126Z,95236.81
2022-11-18T04:19:00.274Z,95242.31
2022-11-18T04:23:04.773Z,95238.59
2022-11-18T04:27:08.728Z,95257.97
2022-11-18T04:31:09.024Z,95204.63
2022-11-18T04:35:09.860Z,95235.44
2022-11-18T04:39:10.160Z,95239.28
2022-11-18T04:43:12.933Z,95245.25
2022-11-18T04:47:14.015Z,95234.97
2022-11-18T04:51:14.153Z,95234.25
2022-11-18T04:55:14.272Z,95246.66
2022-11-18T04:59:20.126Z,95249.63
2022-11-18T05:03:20.643Z,95247.22
2022-11-18T05:07:21.140Z,95237.41
2022-11-18T05:11:33.832Z,95249.13
2022-11-18T05:15:36.798Z,95246.91
2022-11-18T05:19:37.257Z,95212.94
2022-11-18T05:23:37.368Z,95226.41
2022-11-18T05:27:37.629Z,95239.63
2022-11-18T05:31:40.695Z,95232.13
2022-11-18T05:35:41.169Z,95245.53
2022-11-18T05:39:41.437Z,95256.91
2022-11-18T05:43:41.586Z,95246.34
2022-11-18T05:47:56.504Z,95257.41
2022-11-18T05:51:56.572Z,95246.34
2022-11-18T05:56:06.300Z,95254.91
2022-11-18T06:00:07.594Z,95267.47
2022-11-18T06:04:20.677Z,95261.25
2022-11-18T06:08:22.835Z,95257.16
2022-11-18T06:12:30.344Z,95250.88
2022-11-18T06:16:40.569Z,95257.78
2022-11-18T06:20:45.000Z,95268.63
2022-11-18T06:24:46.491Z,95259.25
2022-11-18T06:28:50.712Z,95265.69
2022-11-18T06:32:50.910Z,95267.25
2022-11-18T06:36:53.672Z,95268.44
2022-11-18T06:40:53.939Z,95283.44
2022-11-18T06:44:54.210Z,95294.31
2022-11-18T06:48:55.106Z,95295.50
2022-11-18T06:52:57.840Z,95301.66
2022-11-18T06:56:58.099Z,95301.66
2022-11-18T07:00:58.475Z,95307.72
2022-11-18T07:04:58.671Z,95303.41
2022-11-18T07:09:04.232Z,95304.03
2022-11-18T07:13:04.640Z,95301.94
2022-11-18T07:17:04.800Z,95316.53
2022-11-18T07:21:06.509Z,95304.81
2022-11-18T07:25:09.943Z,95303.22
2022-11-18T07:29:10.826Z,95309.66
2022-11-18T07:33:11.236Z,95324.78
2022-11-18T07:37:11.382Z,95322.28
2022-11-18T07:41:16.827Z,95323.56
2022-11-18T07:45:17.363Z,95300.63
2022-11-18T07:49:17.915Z,95332.03
2022-11-18T07:53:18.252Z,95324.63
2022-11-18T07:57:22.013Z,95304.53
2022-11-18T08:01:25.318Z,95344.72
2022-11-18T08:05:27.719Z,95350.88
2022-11-18T08:09:28.515Z,95310.25
2022-11-18T08:13:33.434Z,95345.81
2022-11-18T08:17:37.016Z,95330.88
2022-11-18T08:21:40.117Z,95327.47
2022-11-18T08:25:42.808Z,95345.22
2022-11-18T08:29:48.609Z,95322.16
2022-11-18T08:33:50.596Z,95328.03
2022-11-18T08:37:51.943Z,95366.44
2022-11-18T08:41:54.038Z,95339.78
2022-11-18T08:45:59.952Z,95323.78
2022-11-18T08:50:02.293Z,95337.97
2022-11-18T08:54:02.595Z,95363.28
2022-11-18T08:58:02.650Z,95373.31
2022-11-18T09:02:05.378Z,95378.16
2022-11-18T09:06:10.325Z,95364.03
2022-11-18T09:10:12.086Z,95379.81
2022-11-18T09:18:38.984Z,95385.72
2022-11-18T09:22:41.925Z,95366.66
2022-11-18T09:26:43.312Z,95353.69
2022-11-18T09:30:44.960Z,95370.09
2022-11-18T09:34:49.206Z,95355.78
2022-11-18T09:38:53.507Z,95375.50
2022-11-18T09:43:12.604Z,95374.19
2022-11-18T09:47:30.450Z,95400.66
2022-11-18T09:51:43.312Z,95378.47
2022-11-18T09:55:46.747Z,95410.19
2022-11-18T09:59:48.475Z,95368.69
2022-11-18T10:03:50.524Z,95381.63
2022-11-18T10:08:15.237Z,95414.34
2022-11-18T10:12:38.045Z,95419.50
2022-11-18T10:16:57.701Z,95378.16
2022-11-18T10:21:15.778Z,95393.22
2022-11-18T10:25:22.587Z,95360.69
2022-11-18T10:29:26.052Z,95420.84
2022-11-18T10:33:32.781Z,95379.97
2022-11-18T10:38:07.334Z,95377.38
2022-11-18T10:42:06.301Z,95405.28
2022-11-18T10:46:22.660Z,95419.09
2022-11-18T10:50:39.657Z,95379.28
2022-11-18T10:54:42.619Z,95439.81
2022-11-18T10:58:52.979Z,95425.72
2022-11-18T11:03:01.249Z,95393.25
2022-11-18T11:07:20.829Z,95439.53
2022-11-18T11:11:31.479Z,95390.34
2022-11-18T11:15:44.219Z,95402.78
2022-11-18T11:20:02.412Z,95435.06
2022-11-18T11:24:02.684Z,95448.31
2022-11-18T11:28:15.588Z,95442.88
2022-11-18T11:32:32.562Z,95448.53
2022-11-18T11:36:50.272Z,95454.91
2022-11-18T11:41:08.003Z,95453.19
2022-11-18T11:45:22.527Z,95447.06
2022-11-18T11:49:46.673Z,95441.44
2022-11-18T11:54:20.191Z,95452.44
2022-11-18T11:58:44.304Z,95465.84
2022-11-18T12:03:16.124Z,95431.41
2022-11-18T12:07:24.705Z,95463.28
2022-11-18T12:11:47.729Z,95435.00
2022-11-18T12:16:26.331Z,95387.16
2022-11-18T12:20:49.273Z,95445.22
2022-11-18T12:24:53.748Z,95437.25
2022-11-18T12:28:54.697Z,95466.22
2022-11-18T12:33:01.181Z,95410.84
2022-11-18T12:38:02.330Z,95469.09
2022-11-18T12:42:45.912Z,95470.50
2022-11-18T12:46:58.978Z,95474.03
2022-11-18T12:51:00.929Z,95437.19
2022-11-18T12:55:05.220Z,95442.00
2022-11-18T12:59:16.890Z,95453.78
2022-11-18T13:03:28.946Z,95478.09
2022-11-18T13:07:47.034Z,95447.75
2022-11-18T13:11:56.306Z,95444.25
2022-11-18T13:16:20.921Z,95451.66
2022-11-18T13:20:33.095Z,95500.75
2022-11-18T13:24:46.709Z,95440.84
2022-11-18T13:29:06.364Z,95449.06
2022-11-18T13:33:18.098Z,95485.97
2022-11-18T13:37:26.638Z,95440.25
2022-11-18T13:41:33.289Z,95432.66
2022-11-18T13:45:39.122Z,95497.44
2022-11-18T13:50:15.474Z,95478.47
2022-11-18T13:54:27.194Z,95465.25
2022-11-18T13:59:15.628Z,95483.41
2022-11-18T14:03:08.223Z,95459.47
2022-11-18T14:07:36.159Z,95477.44
2022-11-18T14:11:43.376Z,95457.00
2022-11-18T14:15:47.164Z,95462.44
2022-11-18T14:19:50.245Z,95472.97
2022-11-18T14:23:53.847Z,95469.94
2022-11-18T14:27:57.541Z,95472.38
2022-11-18T14:32:18.812Z,95484.66
2022-11-18T14:36:23.440Z,95508.84
2022-11-18T14:40:28.383Z,95500.78
2022-11-18T14:45:01.398Z,95490.28
2022-11-18T14:49:23.758Z,95534.28
2022-11-18T14:53:27.922Z,95499.03
2022-11-18T14:57:32.931Z,95502.53
2022-11-18T15:01:39.159Z,95548.41
2022-11-18T15:05:40.732Z,95505.06
2022-11-18T15:09:42.308Z,95522.91
2022-11-18T15:13:46.041Z,95536.06
2022-11-18T15:17:48.505Z,95540.28
2022-11-18T15:21:52.799Z,95553.88
2022-11-18T15:25:55.577Z,95574.44
2022-11-18T15:30:01.677Z,95576.66
2022-11-18T15:34:06.753Z,95577.84
2022-11-18T15:38:20.661Z,95583.81
2022-11-18T15:42:23.464Z,95594.47
2022-11-18T15:46:30.110Z,95591.06
2022-11-18T15:50:30.357Z,95595.28
2022-11-18T15:54:30.520Z,95605.34
2022-11-18T15:58:35.732Z,95602.84
2022-11-18T16:02:39.100Z,95610.91
2022-11-18T16:06:40.117Z,95597.53
2022-11-18T16:10:52.685Z,95613.50
2022-11-18T16:15:12.819Z,95600.84
2022-11-18T16:19:18.695Z,95618.38
2022-11-18T16:23:18.870Z,95617.53
2022-11-18T16:27:21.304Z,95631.72
2022-11-18T16:31:34.382Z,95618.44
2022-11-18T16:35:37.053Z,95644.19
2022-11-18T16:39:37.191Z,95645.16
2022-11-18T16:43:37.395Z,95643.47
2022-11-18T16:47:38.525Z,95647.03
2022-11-18T16:51:43.974Z,95654.38
2022-11-18T16:55:44.110Z,95664.69
2022-11-18T16:59:44.350Z,95676.47
2022-11-18T17:03:45.355Z,95659.84
2022-11-18T17:07:48.194Z,95681.78
2022-11-18T17:11:48.449Z,95690.44
2022-11-18T17:15:48.761Z,95690.44
2022-11-18T17:19:48.877Z,95679.84
2022-11-18T17:23:52.606Z,95689.13
2022-11-18T17:27:52.750Z,95690.66
2022-11-18T17:31:53.894Z,95703.34
2022-11-18T17:36:03.301Z,95700.19
2022-11-18T17:40:06.261Z,95696.47
2022-11-18T17:44:09.164Z,95696.94
2022-11-18T17:48:09.625Z,95709.09
2022-11-18T17:52:09.917Z,95717.16
2022-11-18T17:56:13.219Z,95716.66
2022-11-18T18:00:16.126Z,95718.16
2022-11-18T18:04:20.641Z,95728.19
2022-11-18T18:08:21.118Z,95725.56
2022-11-18T18:12:36.404Z,95708.66
2022-11-18T18:16:36.958Z,95740.66
2022-11-18T18:20:39.226Z,95751.81
2022-11-18T18:24:39.298Z,95746.94
2022-11-18T18:28:42.196Z,95724.19
2022-11-18T18:32:42.381Z,95755.22
2022-11-18T18:36:42.568Z,95749.16
2022-11-18T18:40:43.333Z,95743.84
2022-11-18T18:44:58.886Z,95756.84
2022-11-18T18:49:02.368Z,95757.66
2022-11-18T18:53:02.490Z,95758.72
2022-11-18T18:57:02.607Z,95769.72
2022-11-18T19:01:12.803Z,95765.75
2022-11-18T19:05:13.210Z,95760.66
2022-11-18T19:09:13.415Z,95760.88
2022-11-18T19:13:13.534Z,95779.25
2022-11-18T19:32:32.492Z,95630.00
2022-11-18T19:42:00.901Z,95792.28
2022-11-18T19:46:22.820Z,95785.03
2022-11-18T19:50:44.752Z,95806.84
2022-11-18T19:54:56.068Z,95841.94
2022-11-18T20:04:14.783Z,95720.94
2022-11-18T20:19:29.329Z,95723.13
2022-11-18T20:23:52.432Z,95858.22
2022-11-18T20:28:04.945Z,95867.00
2022-11-18T20:32:20.366Z,95823.59
2022-11-18T20:37:02.141Z,95900.56
2022-11-18T20:41:26.216Z,95757.75
2022-11-18T20:45:40.500Z,95792.22
2022-11-18T20:49:46.831Z,95856.53
2022-11-18T20:53:57.637Z,95867.09
2022-11-18T20:58:01.225Z,95912.31
2022-11-18T21:02:17.728Z,95886.13
2022-11-18T21:06:18.288Z,95931.25
2022-11-18T21:10:21.074Z,95930.50
2022-11-18T21:14:24.812Z,95941.25
2022-11-18T21:18:25.577Z,95947.69
2022-11-18T21:22:28.585Z,95961.66
2022-11-18T21:26:33.812Z,95964.66
2022-11-18T21:30:33.964Z,95970.94
2022-11-18T21:34:34.083Z,95972.53
2022-11-18T21:38:34.208Z,95962.75
2022-11-18T21:42:37.137Z,95981.47
2022-11-18T21:46:38.970Z,95943.25
2022-11-18T21:50:40.997Z,95978.53
2022-11-18T21:54:41.102Z,95988.06
2022-11-18T21:58:44.856Z,95972.38
2022-11-18T22:02:44.915Z,95980.72
2022-11-18T22:06:45.019Z,95989.16
2022-11-18T22:10:48.546Z,95995.69
2022-11-18T22:14:53.168Z,95994.31
2022-11-18T22:19:03.586Z,95999.59
2022-11-18T22:23:06.943Z,95981.34
2022-11-18T22:27:11.318Z,95997.34
2022-11-18T22:31:20.143Z,96001.19
2022-11-18T22:35:20.471Z,96013.44
2022-11-18T22:39:21.167Z,96026.78
2022-11-18T22:43:21.806Z,96021.38
2022-11-18T22:47:24.502Z,96024.22
2022-11-18T22:51:24.637Z,96022.59
2022-11-18T22:55:24.724Z,96002.28
2022-11-18T22:59:25.198Z,96004.06
2022-11-18T23:03:28.040Z,96014.13
2022-11-18T23:07:28.570Z,96024.38
2022-11-18T23:11:41.395Z,96031.81
2022-11-18T23:15:41.782Z,96023.66
2022-11-18T23:19:46.217Z,96053.53
2022-11-18T23:23:47.238Z,96053.84
2022-11-18T23:28:15.665Z,96005.34
2022-11-18T23:32:26.304Z,96028.38
2022-11-18T23:45:53.217Z,96072.50
2022-11-18T23:49:53.317Z,96071.78
2022-11-18T23:53:59.801Z,96062.09
2022-11-18T23:57:59.980Z,96059.59
